Time;durP1;ratioP1;P1;durP2;ratioP2;P2;SDS_P1;SDS_P2;PMS_P1;PMS_P2;Temp;Humidity;BMP_temperature;BMP_pressure;BME280_temperature;BME280_humidity;BME280_pressure;Samples;Min_cycle;Max_cycle;Signal;HPM_P1;HPM_P2
2021/06/24 00:00:38;;;;;;;;;;;14.50;99.90;;;;;;5037579;28;19925;-83
2021/06/24 00:03:05;;;;;;;;;;;14.50;99.90;;;;;;5036569;28;19925;-84
2021/06/24 00:05:32;;;;;;;;;;;14.50;99.90;;;;;;5037625;28;19932;-84
2021/06/24 00:07:59;;;;;;;;;;;14.50;99.90;;;;;;5037397;28;19925;-83
2021/06/24 00:10:26;;;;;;;;;;;14.50;99.90;;;;;;5037684;28;19939;-83
2021/06/24 00:12:54;;;;;;;;;;;14.50;99.90;;;;;;5037326;28;19925;-83
2021/06/24 00:15:21;;;;;;;;;;;14.50;99.90;;;;;;5037322;28;19925;-83
2021/06/24 00:17:48;;;;;;;;;;;14.50;99.90;;;;;;5037191;28;19925;-84
2021/06/24 00:20:15;;;;;;;;;;;14.40;99.90;;;;;;5037178;28;19925;-83
2021/06/24 00:22:42;;;;;;;;;;;14.40;99.90;;;;;;5037261;28;19925;-83
2021/06/24 00:25:09;;;;;;;;;;;14.40;99.90;;;;;;5037253;28;19932;-83
2021/06/24 00:27:36;;;;;;;;;;;14.40;99.90;;;;;;5037243;28;19947;-83
2021/06/24 00:30:05;;;;;;;;;;;14.40;99.90;;;;;;5037024;28;20258;-83
2021/06/24 00:32:32;;;;;;;;;;;14.30;99.90;;;;;;5036995;28;19925;-83
2021/06/24 00:35:01;;;;;;;;;;;14.30;99.90;;;;;;5036766;28;19925;-83
2021/06/24 00:37:28;;;;;;;;;;;14.30;99.90;;;;;;5037085;28;20316;-84
2021/06/24 00:39:55;;;;;;;;;;;14.30;99.90;;;;;;5036937;28;19925;-84
2021/06/24 00:42:22;;;;;;;;;;;14.30;99.90;;;;;;5036641;28;20242;-83
2021/06/24 00:44:49;;;;;;;;;;;14.30;99.90;;;;;;5036719;28;19964;-83
2021/06/24 00:47:17;;;;;;;;;;;14.30;99.90;;;;;;5036631;28;20355;-84
2021/06/24 00:49:44;;;;;;;;;;;14.30;99.90;;;;;;5036638;28;20015;-83
2021/06/24 00:52:11;;;;;;;;;;;14.30;99.90;;;;;;5036788;28;19935;-83
2021/06/24 00:54:38;;;;;;;;;;;14.40;99.90;;;;;;5036637;28;19929;-83
2021/06/24 00:57:06;;;;;;;;;;;14.40;99.90;;;;;;5036464;28;19925;-84
2021/06/24 00:59:33;;;;;;;;;;;14.40;99.90;;;;;;5036428;28;19932;-83
2021/06/24 01:01:59;;;;;;;;;;;14.40;99.90;;;;;;5036237;28;20333;-83
2021/06/24 01:04:28;;;;;;;;;;;14.40;99.90;;;;;;5036220;28;19939;-83
2021/06/24 01:06:55;;;;;;;;;;;14.40;99.90;;;;;;5036199;28;19925;-83
2021/06/24 01:09:21;;;;;;;;;;;14.40;99.90;;;;;;5036167;28;19925;-83
2021/06/24 01:11:48;;;;;;;;;;;14.40;99.90;;;;;;5036219;28;19929;-83
2021/06/24 01:14:15;;;;;;;;;;;14.40;99.90;;;;;;5035754;28;19925;-83
2021/06/24 01:16:42;;;;;;;;;;;14.30;99.90;;;;;;5035554;28;19925;-83
2021/06/24 01:19:10;;;;;;;;;;;14.30;99.90;;;;;;5036220;28;19929;-83
2021/06/24 01:21:39;;;;;;;;;;;14.30;99.90;;;;;;5035940;28;20345;-83
2021/06/24 01:24:07;;;;;;;;;;;14.30;99.90;;;;;;5036162;28;20253;-83
2021/06/24 01:26:37;;;;;;;;;;;14.30;99.90;;;;;;5036122;28;19924;-84
2021/06/24 01:29:04;;;;;;;;;;;14.30;99.90;;;;;;5035779;28;19983;-83
2021/06/24 01:31:31;;;;;;;;;;;14.30;99.90;;;;;;5035751;28;19931;-84
2021/06/24 01:33:58;;;;;;;;;;;14.30;99.90;;;;;;5035707;28;19939;-83
2021/06/24 01:36:27;;;;;;;;;;;14.30;99.90;;;;;;5035696;28;19925;-83
2021/06/24 01:38:54;;;;;;;;;;;14.30;99.90;;;;;;5036006;28;20047;-83
2021/06/24 01:41:22;;;;;;;;;;;14.30;99.90;;;;;;5035580;28;19936;-84
2021/06/24 01:43:49;;;;;;;;;;;14.30;99.90;;;;;;5035701;28;20255;-83
2021/06/24 01:46:16;;;;;;;;;;;14.30;99.90;;;;;;5035649;28;20349;-84
2021/06/24 01:48:43;;;;;;;;;;;14.30;99.90;;;;;;5035576;28;20357;-83
2021/06/24 01:51:10;;;;;;;;;;;14.30;99.90;;;;;;5035445;28;20366;-83
2021/06/24 01:53:37;;;;;;;;;;;14.30;99.90;;;;;;5035592;28;19935;-83
2021/06/24 01:56:04;;;;;;;;;;;14.30;99.90;;;;;;5035441;28;19925;-83
2021/06/24 01:58:32;;;;;;;;;;;14.30;99.90;;;;;;5035675;28;19943;-83
2021/06/24 02:00:59;;;;;;;;;;;14.30;99.90;;;;;;5035281;28;20250;-83
2021/06/24 02:03:26;;;;;;;;;;;14.30;99.90;;;;;;5035355;28;19926;-84
2021/06/24 02:05:53;;;;;;;;;;;14.30;99.90;;;;;;5035195;28;20364;-83
2021/06/24 02:08:21;;;;;;;;;;;14.30;99.90;;;;;;5035152;28;20007;-83
2021/06/24 02:10:48;;;;;;;;;;;14.30;99.90;;;;;;5035224;28;20427;-84
2021/06/24 02:13:15;;;;;;;;;;;14.30;99.90;;;;;;5035056;28;19925;-84
2021/06/24 02:15:43;;;;;;;;;;;14.30;99.90;;;;;;5035751;28;19936;-83
2021/06/24 02:18:10;;;;;;;;;;;14.30;99.90;;;;;;5035035;28;19935;-81
2021/06/24 02:20:37;;;;;;;;;;;14.30;99.90;;;;;;5035072;28;19939;-83
2021/06/24 02:23:04;;;;;;;;;;;14.30;99.90;;;;;;5036359;28;19931;-85
2021/06/24 02:25:32;;;;;;;;;;;14.30;99.90;;;;;;5036852;28;19935;-83
2021/06/24 02:27:59;;;;;;;;;;;14.40;99.90;;;;;;5034741;28;20377;-82
2021/06/24 02:30:26;;;;;;;;;;;14.30;99.90;;;;;;5034951;28;19936;-83
2021/06/24 02:32:54;;;;;;;;;;;14.40;99.90;;;;;;5045832;28;20379;-80
2021/06/24 02:35:22;;;;;;;;;;;14.40;99.90;;;;;;5035025;28;19935;-83
2021/06/24 02:37:49;;;;;;;;;;;14.40;99.90;;;;;;5034978;28;19987;-84
2021/06/24 02:40:16;;;;;;;;;;;14.40;99.90;;;;;;5033892;28;19975;-85
2021/06/24 02:42:43;;;;;;;;;;;14.40;99.90;;;;;;5034817;28;19935;-83
2021/06/24 02:45:10;;;;;;;;;;;14.40;99.90;;;;;;5035131;28;19943;-84
2021/06/24 02:47:37;;;;;;;;;;;14.40;99.90;;;;;;5034426;28;19931;-84
2021/06/24 02:50:06;;;;;;;;;;;14.40;99.90;;;;;;5033482;28;19931;-84
2021/06/24 02:52:33;;;;;;;;;;;14.40;99.90;;;;;;5034723;28;19925;-82
2021/06/24 02:55:00;;;;;;;;;;;14.40;99.90;;;;;;5034817;28;20024;-83
2021/06/24 02:57:27;;;;;;;;;;;14.40;99.90;;;;;;5036234;28;19943;-82
2021/06/24 02:59:54;;;;;;;;;;;14.40;99.90;;;;;;5054362;28;19932;-82
2021/06/24 03:02:21;;;;;;;;;;;14.40;99.90;;;;;;5054187;28;19925;-83
2021/06/24 03:04:48;;;;;;;;;;;14.30;99.90;;;;;;5054571;28;19929;-83
2021/06/24 03:07:16;;;;;;;;;;;14.30;99.90;;;;;;5054612;28;20237;-85
2021/06/24 03:09:43;;;;;;;;;;;14.30;99.90;;;;;;5054663;28;20368;-83
2021/06/24 03:12:10;;;;;;;;;;;14.30;99.90;;;;;;5043806;28;19933;-84
2021/06/24 03:14:37;;;;;;;;;;;14.30;99.90;;;;;;5054430;28;19935;-83
2021/06/24 03:17:04;;;;;;;;;;;14.30;99.90;;;;;;5054006;28;20024;-83
2021/06/24 03:19:31;;;;;;;;;;;14.30;99.90;;;;;;5053672;28;19925;-84
2021/06/24 03:21:57;;;;;;;;;;;14.20;99.90;;;;;;5054186;28;19935;-87
2021/06/24 03:24:26;;;;;;;;;;;14.20;99.90;;;;;;5054293;28;20268;-83
2021/06/24 03:26:53;;;;;;;;;;;14.20;99.90;;;;;;5054270;28;19925;-83
2021/06/24 03:29:20;;;;;;;;;;;14.20;99.90;;;;;;5034814;28;19935;-83
2021/06/24 03:31:52;;;;;;;;;;;14.20;99.90;;;;;;5042926;28;19924;-83
2021/06/24 03:34:19;;;;;;;;;;;14.30;99.90;;;;;;5038339;28;20051;-84
2021/06/24 03:36:46;;;;;;;;;;;14.20;99.90;;;;;;5033611;28;19925;-84
2021/06/24 03:39:13;;;;;;;;;;;14.20;99.90;;;;;;5034679;28;20035;-84
2021/06/24 03:41:41;;;;;;;;;;;14.20;99.90;;;;;;5037230;28;19925;-83
2021/06/24 03:44:08;;;;;;;;;;;14.30;99.90;;;;;;5037351;28;19926;-84
2021/06/24 03:46:35;;;;;;;;;;;14.30;99.90;;;;;;5038050;28;19947;-84
2021/06/24 03:49:02;;;;;;;;;;;14.30;99.90;;;;;;5037884;28;19990;-84
2021/06/24 03:51:29;;;;;;;;;;;14.30;99.90;;;;;;5037766;28;19940;-84
2021/06/24 03:53:56;;;;;;;;;;;14.30;99.90;;;;;;5037662;28;19927;-84
2021/06/24 03:56:23;;;;;;;;;;;14.30;99.90;;;;;;5037657;28;19935;-84
2021/06/24 03:58:51;;;;;;;;;;;14.30;99.90;;;;;;5037613;28;19932;-84
2021/06/24 04:01:21;;;;;;;;;;;14.30;99.90;;;;;;5037539;28;20012;-84
2021/06/24 04:03:48;;;;;;;;;;;14.30;99.90;;;;;;5037494;28;20390;-84
2021/06/24 04:06:14;;;;;;;;;;;14.30;99.90;;;;;;5037197;28;20380;-84
2021/06/24 04:08:41;;;;;;;;;;;14.30;99.90;;;;;;5037741;28;19925;-83
2021/06/24 04:11:08;;;;;;;;;;;14.30;99.90;;;;;;5037468;28;19925;-83
2021/06/24 04:13:35;;;;;;;;;;;14.40;99.90;;;;;;5037527;28;20020;-84
2021/06/24 04:16:03;;;;;;;;;;;14.30;99.90;;;;;;5037369;28;19925;-83
2021/06/24 04:18:31;;;;;;;;;;;16.90;99.90;;;;;;5037204;28;19936;-83
2021/06/24 04:20:58;;;;;;;;;;;14.40;99.90;;;;;;5037135;28;20239;-84
2021/06/24 04:23:25;;;;;;;;;;;14.40;99.90;;;;;;5037258;28;19931;-84
2021/06/24 04:25:51;;;;;;;;;;;14.40;99.90;;;;;;5037074;28;19925;-83
2021/06/24 04:28:18;;;;;;;;;;;14.40;99.90;;;;;;5036998;28;19939;-84
2021/06/24 04:30:45;;;;;;;;;;;14.40;99.90;;;;;;5037038;28;19987;-84
2021/06/24 04:33:14;;;;;;;;;;;14.40;99.90;;;;;;5037128;28;19933;-84
2021/06/24 04:35:40;;;;;;;;;;;14.40;99.90;;;;;;5037167;28;19935;-84
2021/06/24 04:38:07;;;;;;;;;;;14.40;99.90;;;;;;5037109;28;19925;-84
2021/06/24 04:40:34;;;;;;;;;;;14.40;99.90;;;;;;5037263;28;19983;-84
2021/06/24 04:43:01;;;;;;;;;;;14.40;99.90;;;;;;5036740;28;19925;-84
2021/06/24 04:45:28;;;;;;;;;;;14.40;99.90;;;;;;5036729;28;20023;-84
2021/06/24 04:47:55;;;;;;;;;;;14.40;99.90;;;;;;5036739;28;20268;-84
2021/06/24 04:50:23;;;;;;;;;;;14.40;99.90;;;;;;5036344;28;20346;-84
2021/06/24 04:52:50;;;;;;;;;;;14.40;99.90;;;;;;5036610;28;19929;-84
2021/06/24 04:55:17;;;;;;;;;;;14.40;99.90;;;;;;5036736;28;19935;-84
2021/06/24 04:57:44;;;;;;;;;;;14.40;99.90;;;;;;5036802;28;19936;-84
2021/06/24 05:00:11;;;;;;;;;;;14.40;99.90;;;;;;5036700;28;19925;-84
2021/06/24 05:02:38;;;;;;;;;;;14.50;99.90;;;;;;5036430;28;19925;-84
2021/06/24 05:05:07;;;;;;;;;;;14.50;99.90;;;;;;5036500;28;19925;-84
2021/06/24 05:07:36;;;;;;;;;;;14.50;99.90;;;;;;5036320;28;19933;-85
2021/06/24 05:10:03;;;;;;;;;;;14.50;99.90;;;;;;5036423;28;19936;-84
2021/06/24 05:12:30;;;;;;;;;;;14.50;99.90;;;;;;5036219;28;20027;-85
2021/06/24 05:14:57;;;;;;;;;;;14.50;99.90;;;;;;5036215;28;20265;-84
2021/06/24 05:17:24;;;;;;;;;;;14.50;99.90;;;;;;5036014;28;20368;-83
2021/06/24 05:19:51;;;;;;;;;;;14.50;99.90;;;;;;5036030;28;19925;-84
2021/06/24 05:22:17;;;;;;;;;;;14.50;99.90;;;;;;5036001;28;19925;-84
2021/06/24 05:24:46;;;;;;;;;;;14.50;99.90;;;;;;5035976;28;19925;-84
2021/06/24 05:27:12;;;;;;;;;;;14.50;99.90;;;;;;5036101;28;19925;-84
2021/06/24 05:29:39;;;;;;;;;;;14.60;99.90;;;;;;5036044;28;19932;-84
2021/06/24 05:32:06;;;;;;;;;;;14.70;99.90;;;;;;5036259;28;19929;-84
2021/06/24 05:34:33;;;;;;;;;;;14.70;99.90;;;;;;5035779;28;20349;-85
2021/06/24 05:37:01;;;;;;;;;;;14.70;99.90;;;;;;5035999;28;19929;-84
2021/06/24 05:39:28;;;;;;;;;;;14.70;99.90;;;;;;5035748;28;20330;-84
2021/06/24 05:41:56;;;;;;;;;;;14.70;99.90;;;;;;5035821;28;19935;-84
2021/06/24 05:44:23;;;;;;;;;;;14.80;99.90;;;;;;5035887;28;19979;-83
2021/06/24 05:46:50;;;;;;;;;;;14.70;99.90;;;;;;5035790;28;19932;-84
2021/06/24 05:49:17;;;;;;;;;;;14.70;99.90;;;;;;5035676;28;19924;-84
2021/06/24 05:51:44;;;;;;;;;;;14.70;99.90;;;;;;5035538;28;19925;-82
2021/06/24 05:54:11;;;;;;;;;;;14.70;99.90;;;;;;5035650;28;20392;-81
2021/06/24 05:56:38;;;;;;;;;;;14.70;99.90;;;;;;5035730;28;19924;-83
2021/06/24 05:59:06;;;;;;;;;;;14.70;99.90;;;;;;5035544;28;20020;-83
2021/06/24 06:01:33;;;;;;;;;;;14.70;99.90;;;;;;5034679;28;19925;-82
2021/06/24 06:04:00;;;;;;;;;;;14.70;99.90;;;;;;5035410;28;19929;-83
2021/06/24 06:06:27;;;;;;;;;;;14.70;99.90;;;;;;5035160;28;19979;-83
2021/06/24 06:08:54;;;;;;;;;;;14.70;99.90;;;;;;5035046;28;19932;-83
2021/06/24 06:11:20;;;;;;;;;;;14.70;99.90;;;;;;5035253;28;19925;-83
2021/06/24 06:13:47;;;;;;;;;;;14.70;99.90;;;;;;5035455;28;19939;-83
2021/06/24 06:16:15;;;;;;;;;;;14.70;99.90;;;;;;5035459;28;19925;-83
2021/06/24 06:18:42;;;;;;;;;;;14.70;99.90;;;;;;5035156;28;19925;-83
2021/06/24 06:21:09;;;;;;;;;;;14.70;99.90;;;;;;5035229;28;19939;-83
2021/06/24 06:23:36;;;;;;;;;;;14.70;99.90;;;;;;5035032;28;19925;-84
2021/06/24 06:26:03;;;;;;;;;;;14.70;99.90;;;;;;5035351;28;19925;-83
2021/06/24 06:28:30;;;;;;;;;;;14.70;99.90;;;;;;5034810;28;20020;-83
2021/06/24 06:30:59;;;;;;;;;;;14.70;99.90;;;;;;5035023;28;19935;-83
2021/06/24 06:33:27;;;;;;;;;;;14.60;99.90;;;;;;5034745;28;19932;-84
2021/06/24 06:35:54;;;;;;;;;;;14.70;99.90;;;;;;5034525;28;20356;-83
2021/06/24 06:38:21;;;;;;;;;;;14.70;99.90;;;;;;5034796;28;19925;-83
2021/06/24 06:40:47;;;;;;;;;;;14.80;99.90;;;;;;5034866;28;19925;-83
2021/06/24 06:43:15;;;;;;;;;;;14.80;99.90;;;;;;5035160;28;19925;-83
2021/06/24 06:45:42;;;;;;;;;;;14.80;99.90;;;;;;5035038;28;19968;-83
2021/06/24 06:48:09;;;;;;;;;;;14.90;99.90;;;;;;5034703;28;19925;-83
2021/06/24 06:50:38;;;;;;;;;;;14.90;99.90;;;;;;5034818;28;19948;-80
2021/06/24 06:53:05;;;;;;;;;;;14.90;99.90;;;;;;5034778;28;19925;-82
2021/06/24 06:55:32;;;;;;;;;;;14.90;99.90;;;;;;5034778;28;19933;-83
2021/06/24 06:57:59;;;;;;;;;;;15.00;99.90;;;;;;5034821;28;20223;-82
2021/06/24 07:00:28;;;;;;;;;;;15.00;99.90;;;;;;5034717;28;20350;-82
2021/06/24 07:02:55;;;;;;;;;;;15.00;99.90;;;;;;5034789;28;19976;-82
2021/06/24 07:05:22;;;;;;;;;;;15.00;99.90;;;;;;5034668;28;19970;-83
2021/06/24 07:07:50;;;;;;;;;;;15.00;99.90;;;;;;5034590;28;19935;-81
2021/06/24 07:10:17;;;;;;;;;;;15.00;99.90;;;;;;5034623;28;19925;-82
2021/06/24 07:12:43;;;;;;;;;;;15.00;99.90;;;;;;5036027;28;19925;-83
2021/06/24 07:15:11;;;;;;;;;;;15.00;99.90;;;;;;5038580;28;19939;-83
2021/06/24 07:17:38;;;;;;;;;;;15.00;99.90;;;;;;5038550;28;19925;-83
2021/06/24 07:20:05;;;;;;;;;;;15.00;99.90;;;;;;5038362;28;19935;-83
2021/06/24 07:22:32;;;;;;;;;;;15.00;99.90;;;;;;5038290;28;19932;-83
2021/06/24 07:25:00;;;;;;;;;;;14.90;99.90;;;;;;5038276;28;19925;-83
2021/06/24 07:27:27;;;;;;;;;;;14.90;99.90;;;;;;5038215;28;19935;-83
2021/06/24 07:29:54;;;;;;;;;;;15.00;99.90;;;;;;5038422;28;19925;-83
2021/06/24 07:32:20;;;;;;;;;;;15.00;99.90;;;;;;5038141;28;19929;-83
2021/06/24 07:34:47;;;;;;;;;;;15.00;99.90;;;;;;5038078;28;19951;-83
2021/06/24 07:37:14;;;;;;;;;;;15.00;99.90;;;;;;5038183;28;20050;-84
2021/06/24 07:39:41;;;;;;;;;;;15.10;99.90;;;;;;5037966;28;19972;-84
2021/06/24 07:42:09;;;;;;;;;;;15.00;99.90;;;;;;5038095;28;20007;-84
2021/06/24 07:44:36;;;;;;;;;;;15.00;99.90;;;;;;5038014;28;19935;-84
2021/06/24 07:47:03;;;;;;;;;;;15.00;99.90;;;;;;5037914;28;19936;-84
2021/06/24 07:49:30;;;;;;;;;;;15.00;99.90;;;;;;5037733;28;20284;-84
2021/06/24 07:51:57;;;;;;;;;;;15.00;99.90;;;;;;5037606;28;20337;-84
2021/06/24 07:54:24;;;;;;;;;;;15.00;99.90;;;;;;5037670;28;20356;-83
2021/06/24 07:56:51;;;;;;;;;;;15.00;99.90;;;;;;5037567;28;19925;-83
2021/06/24 07:59:19;;;;;;;;;;;15.00;99.90;;;;;;5037625;28;20023;-84
2021/06/24 08:01:46;;;;;;;;;;;15.10;99.90;;;;;;5037525;28;20368;-85
2021/06/24 08:04:13;;;;;;;;;;;15.10;99.90;;;;;;5037425;28;19931;-85
2021/06/24 08:06:39;;;;;;;;;;;15.10;99.90;;;;;;5037129;28;19931;-85
2021/06/24 08:09:09;;;;;;;;;;;15.10;99.90;;;;;;5037400;28;20052;-84
2021/06/24 08:11:36;;;;;;;;;;;15.10;99.90;;;;;;5037472;28;19929;-82
2021/06/24 08:14:03;;;;;;;;;;;15.10;99.90;;;;;;5037237;28;19925;-85
2021/06/24 08:16:31;;;;;;;;;;;15.20;99.90;;;;;;5037293;28;19951;-84
2021/06/24 08:18:58;;;;;;;;;;;15.30;99.90;;;;;;5037214;28;19925;-84
2021/06/24 08:21:25;;;;;;;;;;;15.30;99.90;;;;;;5037207;28;19925;-84
2021/06/24 08:23:52;;;;;;;;;;;15.30;99.90;;;;;;5036466;28;20360;-84
2021/06/24 08:26:19;;;;;;;;;;;15.30;99.90;;;;;;5037061;28;20436;-84
2021/06/24 08:28:46;;;;;;;;;;;15.40;99.90;;;;;;5037165;28;19987;-84
2021/06/24 08:31:13;;;;;;;;;;;15.40;99.90;;;;;;5037105;28;19925;-84
2021/06/24 08:33:41;;;;;;;;;;;15.50;99.90;;;;;;5036965;28;20011;-84
2021/06/24 08:36:08;;;;;;;;;;;15.50;99.90;;;;;;5037096;28;19931;-84
2021/06/24 08:38:35;;;;;;;;;;;15.50;99.90;;;;;;5037027;28;19925;-84
2021/06/24 08:41:02;;;;;;;;;;;15.50;99.90;;;;;;5036968;28;20016;-84
2021/06/24 08:43:29;;;;;;;;;;;15.50;99.90;;;;;;5036926;28;19925;-84
2021/06/24 08:45:57;;;;;;;;;;;15.50;99.90;;;;;;5036812;28;20275;-84
2021/06/24 08:48:24;;;;;;;;;;;15.50;99.90;;;;;;5036610;28;19925;-84
2021/06/24 08:50:52;;;;;;;;;;;15.50;99.90;;;;;;5036590;28;19925;-84
2021/06/24 08:53:20;;;;;;;;;;;15.50;99.90;;;;;;5036491;28;19925;-84
2021/06/24 08:55:51;;;;;;;;;;;15.50;99.90;;;;;;5036597;28;19972;-84
2021/06/24 08:58:18;;;;;;;;;;;15.50;99.90;;;;;;5036788;28;19925;-84
2021/06/24 09:00:45;;;;;;;;;;;15.60;99.90;;;;;;5036527;28;19936;-84
2021/06/24 09:03:15;;;;;;;;;;;15.70;99.90;;;;;;5036448;28;19925;-83
2021/06/24 09:05:53;;;;;;;;;;;15.70;99.90;;;;;;5036276;28;19932;-84
2021/06/24 09:08:24;;;;;;;;;;;15.80;99.90;;;;;;5036167;28;20028;-84
2021/06/24 09:11:06;;;;;;;;;;;15.80;99.90;;;;;;5036254;28;19925;-84
2021/06/24 09:13:33;;;;;;;;;;;15.80;99.90;;;;;;5036250;28;20003;-83
2021/06/24 09:16:02;;;;;;;;;;;15.80;99.90;;;;;;5036559;28;20024;-83
2021/06/24 09:18:29;;;;;;;;;;;15.90;99.90;;;;;;5036123;28;19931;-83
2021/06/24 09:20:58;;;;;;;;;;;15.90;99.90;;;;;;5036174;28;19925;-83
2021/06/24 09:23:25;;;;;;;;;;;16.00;99.90;;;;;;5035987;28;19935;-83
2021/06/24 09:26:05;;;;;;;;;;;16.10;99.90;;;;;;5035881;28;19925;-83
2021/06/24 09:28:36;;;;;;;;;;;16.20;99.90;;;;;;5036126;28;19964;-83
2021/06/24 09:31:03;;;;;;;;;;;16.20;99.90;;;;;;5036126;28;19925;-83
2021/06/24 09:33:38;;;;;;;;;;;16.20;99.90;;;;;;5036199;28;20045;-83
2021/06/24 09:36:07;;;;;;;;;;;16.20;99.90;;;;;;5034844;28;19935;-83
2021/06/24 09:38:40;;;;;;;;;;;16.20;99.90;;;;;;5035825;28;20357;-83
2021/06/24 09:41:07;;;;;;;;;;;16.10;99.90;;;;;;5035766;28;20020;-83
2021/06/24 09:43:35;;;;;;;;;;;16.10;99.90;;;;;;5035519;28;19925;-83
2021/06/24 09:46:06;;;;;;;;;;;16.10;99.90;;;;;;5035510;28;19932;-83
2021/06/24 09:48:33;;;;;;;;;;;16.10;99.90;;;;;;5035893;28;19971;-84
2021/06/24 09:51:06;;;;;;;;;;;16.10;99.90;;;;;;5035547;28;19968;-83
2021/06/24 09:53:33;;;;;;;;;;;16.10;99.90;;;;;;5035728;28;19925;-84
2021/06/24 09:56:00;;;;;;;;;;;16.20;99.90;;;;;;5035381;28;20284;-84
2021/06/24 09:58:27;;;;;;;;;;;16.20;99.90;;;;;;5035444;28;19932;-84
2021/06/24 10:00:54;;;;;;;;;;;16.20;99.90;;;;;;5035411;28;19925;-84
2021/06/24 10:03:21;;;;;;;;;;;16.20;99.90;;;;;;5035396;28;20383;-84
2021/06/24 10:05:48;;;;;;;;;;;16.30;99.90;;;;;;5035206;28;20024;-83
2021/06/24 10:08:17;;;;;;;;;;;16.40;99.90;;;;;;5035226;28;19925;-83
2021/06/24 10:10:44;;;;;;;;;;;16.50;99.90;;;;;;5035503;28;19925;-83
2021/06/24 10:13:11;;;;;;;;;;;16.50;99.90;;;;;;5035297;28;19940;-83
2021/06/24 10:15:38;;;;;;;;;;;16.50;99.90;;;;;;5035226;28;19925;-83
2021/06/24 10:18:05;;;;;;;;;;;16.60;99.90;;;;;;5035212;28;20321;-83
2021/06/24 10:20:32;;;;;;;;;;;16.60;99.90;;;;;;5035185;28;19972;-83
2021/06/24 10:23:00;;;;;;;;;;;16.70;99.90;;;;;;5035417;28;19925;-82
2021/06/24 10:25:28;;;;;;;;;;;16.70;99.90;;;;;;5035275;28;19924;-83
2021/06/24 10:27:55;;;;;;;;;;;16.80;99.90;;;;;;5035356;28;19925;-83
2021/06/24 10:30:22;;;;;;;;;;;16.80;99.90;;;;;;5035134;28;20015;-82
2021/06/24 10:32:57;;;;;;;;;;;16.80;99.90;;;;;;5034906;28;19925;-83
2021/06/24 10:35:24;;;;;;;;;;;16.90;99.90;;;;;;5035410;28;19936;-82
2021/06/24 10:37:51;;;;;;;;;;;16.90;99.90;;;;;;5035024;28;19929;-82
2021/06/24 10:40:36;;;;;;;;;;;17.00;99.90;;;;;;5034990;28;19925;-82
2021/06/24 10:43:05;;;;;;;;;;;17.00;99.90;;;;;;5035042;28;19925;-82
2021/06/24 10:45:32;;;;;;;;;;;17.10;99.90;;;;;;5034867;28;19925;-83
2021/06/24 10:47:59;;;;;;;;;;;17.20;99.90;;;;;;5036698;28;19925;-82
2021/06/24 10:50:43;;;;;;;;;;;17.30;99.90;;;;;;5038900;28;19947;-82
2021/06/24 10:53:35;;;;;;;;;;;17.30;99.90;;;;;;5038956;28;20011;-82
2021/06/24 10:56:02;;;;;;;;;;;17.30;99.90;;;;;;5029056;28;20062;-82
2021/06/24 10:58:37;;;;;;;;;;;17.40;99.90;;;;;;5038876;28;19953;-82
2021/06/24 11:01:05;;;;;;;;;;;17.40;99.90;;;;;;5038571;28;20381;-82
2021/06/24 11:03:37;;;;;;;;;;;17.40;99.90;;;;;;5038629;28;19929;-82
2021/06/24 11:06:09;;;;;;;;;;;17.40;99.90;;;;;;5038654;28;19925;-81
2021/06/24 11:08:36;;;;;;;;;;;17.40;99.90;;;;;;5039066;28;19925;-82
2021/06/24 11:11:03;;;;;;;;;;;17.50;99.90;;;;;;5038632;28;20004;-82
2021/06/24 11:13:50;;;;;;;;;;;17.70;99.90;;;;;;5038378;28;19925;-82
2021/06/24 11:16:32;;;;;;;;;;;17.80;99.90;;;;;;5038525;28;20315;-82
2021/06/24 11:19:06;;;;;;;;;;;17.90;99.90;;;;;;5038455;28;20326;-81
2021/06/24 11:21:48;;;;;;;;;;;18.10;99.90;;;;;;5038622;28;20304;-81
2021/06/24 11:24:16;;;;;;;;;;;18.10;99.90;;;;;;5038398;28;19925;-82
2021/06/24 11:26:43;;;;;;;;;;;18.00;99.90;;;;;;5038330;28;19925;-82
2021/06/24 11:29:18;;;;;;;;;;;17.90;99.90;;;;;;5038245;28;19929;-81
2021/06/24 11:31:48;;;;;;;;;;;17.90;99.90;;;;;;5038496;28;20011;-82
2021/06/24 11:34:20;;;;;;;;;;;18.00;99.90;;;;;;5038646;28;19925;-82
2021/06/24 11:36:48;;;;;;;;;;;18.00;99.90;;;;;;5035968;28;19936;-81
2021/06/24 11:39:21;;;;;;;;;;;18.00;99.90;;;;;;5037644;28;20011;-82
2021/06/24 11:41:50;;;;;;;;;;;18.00;99.90;;;;;;5038018;28;19924;-82
2021/06/24 11:44:24;;;;;;;;;;;17.90;99.90;;;;;;5038120;28;20334;-81
2021/06/24 11:46:53;;;;;;;;;;;17.90;99.90;;;;;;5037817;28;20312;-82
2021/06/24 11:49:29;;;;;;;;;;;17.90;99.90;;;;;;5038043;28;19936;-82
2021/06/24 12:00:37;;;;;;;;;;;17.90;99.90;;;;;;5037026;28;19928;-81
2021/06/24 12:03:06;;;;;;;;;;;18.20;99.90;;;;;;5037788;28;19926;-81
2021/06/24 12:05:32;;;;;;;;;;;18.30;99.90;;;;;;5037708;28;19935;-81
2021/06/24 12:07:59;;;;;;;;;;;18.50;99.90;;;;;;5037348;28;20015;-81
2021/06/24 12:10:26;;;;;;;;;;;18.50;99.90;;;;;;5037640;28;19935;-80
2021/06/24 12:12:53;;;;;;;;;;;18.50;99.90;;;;;;5037442;28;19924;-83
2021/06/24 12:15:20;;;;;;;;;;;18.50;99.90;;;;;;5037456;28;19925;-82
2021/06/24 12:17:48;;;;;;;;;;;18.60;99.90;;;;;;5037631;28;19925;-83
2021/06/24 12:20:18;;;;;;;;;;;18.70;99.90;;;;;;5037547;28;19925;-83
2021/06/24 12:22:47;;;;;;;;;;;18.70;99.90;;;;;;5036768;28;19936;-84
2021/06/24 12:25:15;;;;;;;;;;;18.70;99.90;;;;;;5035630;28;19925;-81
2021/06/24 12:27:42;;;;;;;;;;;18.50;99.90;;;;;;5036631;28;19929;-81
2021/06/24 12:30:10;;;;;;;;;;;18.40;99.90;;;;;;5037446;28;19925;-81
2021/06/24 12:32:37;;;;;;;;;;;18.40;99.90;;;;;;5037227;28;19961;-81
2021/06/24 12:35:06;;;;;;;;;;;18.40;99.90;;;;;;5036985;28;19932;-81
2021/06/24 12:37:37;;;;;;;;;;;18.40;99.90;;;;;;5036835;28;20028;-81
2021/06/24 12:40:05;;;;;;;;;;;18.50;99.90;;;;;;5043618;28;20007;-81
2021/06/24 12:42:32;;;;;;;;;;;18.50;99.90;;;;;;5054992;28;19929;-82
2021/06/24 12:44:59;;;;;;;;;;;18.60;99.90;;;;;;5055274;28;19925;-82
2021/06/24 12:47:33;;;;;;;;;;;18.70;99.90;;;;;;5055988;28;19924;-71
2021/06/24 12:50:10;;;;;;;;;;;18.70;99.90;;;;;;5056637;28;19925;-71
2021/06/24 12:52:37;;;;;;;;;;;18.60;99.90;;;;;;5056734;28;19929;-71
2021/06/24 12:55:09;;;;;;;;;;;18.60;99.90;;;;;;5056439;28;20361;-71
2021/06/24 12:57:36;;;;;;;;;;;18.50;99.90;;;;;;5056573;28;20240;-71
2021/06/24 13:00:03;;;;;;;;;;;18.50;99.90;;;;;;5056590;28;19924;-71
2021/06/24 13:02:31;;;;;;;;;;;18.50;99.90;;;;;;5052948;28;19935;-71
2021/06/24 13:04:58;;;;;;;;;;;18.70;99.90;;;;;;5056449;28;19925;-71
2021/06/24 13:07:27;;;;;;;;;;;18.80;99.90;;;;;;5056094;28;19935;-71
2021/06/24 13:09:54;;;;;;;;;;;18.70;99.90;;;;;;5056212;28;19991;-71
2021/06/24 13:12:21;;;;;;;;;;;18.60;99.90;;;;;;5056216;28;19935;-71
2021/06/24 13:14:47;;;;;;;;;;;18.60;99.90;;;;;;5056222;28;19932;-71
2021/06/24 13:17:16;;;;;;;;;;;18.60;99.90;;;;;;5055434;28;20141;-71
2021/06/24 13:19:50;;;;;;;;;;;18.60;99.90;;;;;;5056258;28;20383;-71
2021/06/24 13:22:18;;;;;;;;;;;18.60;99.90;;;;;;5055888;28;19975;-71
2021/06/24 13:24:47;;;;;;;;;;;18.60;99.90;;;;;;5055953;28;19990;-71
2021/06/24 13:27:14;;;;;;;;;;;18.60;99.90;;;;;;5056015;28;19931;-71
2021/06/24 13:29:42;;;;;;;;;;;18.70;99.90;;;;;;5055912;28;19924;-71
2021/06/24 13:32:09;;;;;;;;;;;18.70;99.90;;;;;;5055879;28;19935;-71
2021/06/24 13:34:37;;;;;;;;;;;18.80;99.90;;;;;;5055830;28;20034;-71
2021/06/24 13:37:13;;;;;;;;;;;18.80;99.90;;;;;;5055871;28;19924;-71
2021/06/24 13:39:40;;;;;;;;;;;18.80;99.90;;;;;;5055837;28;19935;-71
2021/06/24 13:42:08;;;;;;;;;;;18.90;99.90;;;;;;5055738;28;19929;-71
2021/06/24 13:44:35;;;;;;;;;;;18.90;99.90;;;;;;5055774;28;19924;-71
2021/06/24 13:47:02;;;;;;;;;;;18.90;99.90;;;;;;5055362;28;19928;-71
2021/06/24 13:49:29;;;;;;;;;;;18.90;99.90;;;;;;5055422;28;19924;-71
2021/06/24 13:51:57;;;;;;;;;;;18.90;99.90;;;;;;5055837;28;19924;-74
2021/06/24 13:54:24;;;;;;;;;;;18.70;99.90;;;;;;5055407;28;19936;-74
2021/06/24 13:56:51;;;;;;;;;;;18.70;99.90;;;;;;5055386;28;19925;-74
2021/06/24 13:59:20;;;;;;;;;;;18.70;99.90;;;;;;5055495;28;19925;-73
2021/06/24 14:01:47;;;;;;;;;;;18.70;99.90;;;;;;5055374;28;19925;-73
2021/06/24 14:04:14;;;;;;;;;;;18.80;99.90;;;;;;5055221;28;19925;-73
2021/06/24 14:06:40;;;;;;;;;;;18.90;99.90;;;;;;5055136;28;19924;-73
2021/06/24 14:09:08;;;;;;;;;;;18.90;99.90;;;;;;5055057;28;19925;-74
2021/06/24 14:11:35;;;;;;;;;;;18.90;99.90;;;;;;5055329;28;19925;-72
2021/06/24 14:14:03;;;;;;;;;;;18.80;99.90;;;;;;5055038;28;20023;-73
2021/06/24 14:16:31;;;;;;;;;;;18.90;99.90;;;;;;5055119;28;19975;-73
2021/06/24 14:18:58;;;;;;;;;;;18.80;99.90;;;;;;5055458;28;20375;-74
2021/06/24 14:21:25;;;;;;;;;;;18.90;99.90;;;;;;5054865;28;20264;-73
2021/06/24 14:23:54;;;;;;;;;;;19.00;99.90;;;;;;5054861;28;19974;-73
2021/06/24 14:26:21;;;;;;;;;;;19.00;99.90;;;;;;5054906;28;20015;-73
2021/06/24 14:28:48;;;;;;;;;;;19.10;99.90;;;;;;5054907;28;19978;-73